sensor_id;sensor_type;location;lat;lon;timestamp;P1;durP1;ratioP1;P2;durP2;ratioP2
7116;SDS011;3600;48.568;7.870;2023-06-22T00:01:19;8.20;;;7.00;;
7116;SDS011;3600;48.568;7.870;2023-06-22T00:03:47;9.18;;;6.93;;
7116;SDS011;3600;48.568;7.870;2023-06-22T00:06:14;7.25;;;6.55;;
7116;SDS011;3600;48.568;7.870;2023-06-22T00:08:41;7.68;;;6.95;;
7116;SDS011;3600;48.568;7.870;2023-06-22T00:11:08;6.55;;;5.93;;
7116;SDS011;3600;48.568;7.870;2023-06-22T00:13:35;7.95;;;6.63;;
7116;SDS011;3600;48.568;7.870;2023-06-22T00:16:02;7.90;;;7.13;;
7116;SDS011;3600;48.568;7.870;2023-06-22T00:18:29;10.32;;;6.82;;
7116;SDS011;3600;48.568;7.870;2023-06-22T00:20:57;7.30;;;6.55;;
7116;SDS011;3600;48.568;7.870;2023-06-22T00:23:24;7.18;;;6.57;;
7116;SDS011;3600;48.568;7.870;2023-06-22T00:25:51;7.82;;;6.85;;
7116;SDS011;3600;48.568;7.870;2023-06-22T00:28:18;8.95;;;6.22;;
7116;SDS011;3600;48.568;7.870;2023-06-22T00:30:45;7.35;;;6.72;;
7116;SDS011;3600;48.568;7.870;2023-06-22T00:33:13;7.57;;;6.95;;
7116;SDS011;3600;48.568;7.870;2023-06-22T00:35:42;7.68;;;6.97;;
7116;SDS011;3600;48.568;7.870;2023-06-22T00:38:09;8.13;;;7.32;;
7116;SDS011;3600;48.568;7.870;2023-06-22T00:40:36;7.82;;;7.03;;
7116;SDS011;3600;48.568;7.870;2023-06-22T00:43:03;10.23;;;7.93;;
7116;SDS011;3600;48.568;7.870;2023-06-22T00:45:31;8.30;;;7.45;;
7116;SDS011;3600;48.568;7.870;2023-06-22T00:47:58;8.57;;;7.78;;
7116;SDS011;3600;48.568;7.870;2023-06-22T00:50:26;9.25;;;8.10;;
7116;SDS011;3600;48.568;7.870;2023-06-22T00:53:04;8.00;;;7.20;;
7116;SDS011;3600;48.568;7.870;2023-06-22T00:55:42;8.93;;;8.02;;
7116;SDS011;3600;48.568;7.870;2023-06-22T00:58:11;9.68;;;7.55;;
7116;SDS011;3600;48.568;7.870;2023-06-22T01:00:39;8.82;;;7.20;;
7116;SDS011;3600;48.568;7.870;2023-06-22T01:03:07;8.57;;;7.15;;
7116;SDS011;3600;48.568;7.870;2023-06-22T01:05:35;9.07;;;7.95;;
7116;SDS011;3600;48.568;7.870;2023-06-22T01:13:43;8.95;;;7.85;;
7116;SDS011;3600;48.568;7.870;2023-06-22T01:16:21;9.13;;;8.23;;
7116;SDS011;3600;48.568;7.870;2023-06-22T01:18:52;7.97;;;7.28;;
7116;SDS011;3600;48.568;7.870;2023-06-22T01:21:22;8.40;;;7.60;;
7116;SDS011;3600;48.568;7.870;2023-06-22T01:26:56;9.23;;;8.07;;
7116;SDS011;3600;48.568;7.870;2023-06-22T01:29:24;8.30;;;7.57;;
7116;SDS011;3600;48.568;7.870;2023-06-22T01:31:53;7.70;;;6.90;;
7116;SDS011;3600;48.568;7.870;2023-06-22T01:34:22;8.68;;;7.78;;
7116;SDS011;3600;48.568;7.870;2023-06-22T01:36:50;11.40;;;8.32;;
7116;SDS011;3600;48.568;7.870;2023-06-22T01:39:18;9.63;;;7.43;;
7116;SDS011;3600;48.568;7.870;2023-06-22T01:41:47;8.40;;;7.07;;
7116;SDS011;3600;48.568;7.870;2023-06-22T01:44:14;8.65;;;7.82;;
7116;SDS011;3600;48.568;7.870;2023-06-22T01:46:42;8.13;;;7.30;;
7116;SDS011;3600;48.568;7.870;2023-06-22T01:49:09;11.00;;;8.07;;
7116;SDS011;3600;48.568;7.870;2023-06-22T01:51:36;9.10;;;7.03;;
7116;SDS011;3600;48.568;7.870;2023-06-22T01:54:05;7.93;;;7.10;;
7116;SDS011;3600;48.568;7.870;2023-06-22T01:56:34;7.82;;;7.03;;
7116;SDS011;3600;48.568;7.870;2023-06-22T01:59:09;7.25;;;6.57;;
7116;SDS011;3600;48.568;7.870;2023-06-22T02:01:45;8.25;;;7.45;;
7116;SDS011;3600;48.568;7.870;2023-06-22T02:04:24;7.78;;;7.07;;
7116;SDS011;3600;48.568;7.870;2023-06-22T02:06:55;7.88;;;7.07;;
7116;SDS011;3600;48.568;7.870;2023-06-22T02:09:24;7.35;;;6.65;;
7116;SDS011;3600;48.568;7.870;2023-06-22T02:11:55;8.65;;;7.10;;
7116;SDS011;3600;48.568;7.870;2023-06-22T02:14:23;7.53;;;6.88;;
7116;SDS011;3600;48.568;7.870;2023-06-22T02:16:51;9.73;;;8.02;;
7116;SDS011;3600;48.568;7.870;2023-06-22T02:19:22;7.43;;;6.72;;
7116;SDS011;3600;48.568;7.870;2023-06-22T02:21:49;8.07;;;6.70;;
7116;SDS011;3600;48.568;7.870;2023-06-22T02:24:16;7.22;;;6.53;;
7116;SDS011;3600;48.568;7.870;2023-06-22T02:26:43;8.18;;;7.25;;
7116;SDS011;3600;48.568;7.870;2023-06-22T02:29:11;8.75;;;6.90;;
7116;SDS011;3600;48.568;7.870;2023-06-22T02:31:38;8.02;;;7.22;;
7116;SDS011;3600;48.568;7.870;2023-06-22T02:34:06;8.20;;;7.40;;
7116;SDS011;3600;48.568;7.870;2023-06-22T02:36:32;8.75;;;7.13;;
7116;SDS011;3600;48.568;7.870;2023-06-22T02:38:59;8.30;;;7.57;;
7116;SDS011;3600;48.568;7.870;2023-06-22T02:41:28;13.27;;;8.68;;
7116;SDS011;3600;48.568;7.870;2023-06-22T02:43:54;8.40;;;7.60;;
7116;SDS011;3600;48.568;7.870;2023-06-22T02:46:21;8.30;;;7.40;;
7116;SDS011;3600;48.568;7.870;2023-06-22T02:48:49;10.15;;;8.02;;
7116;SDS011;3600;48.568;7.870;2023-06-22T02:51:15;9.48;;;7.85;;
7116;SDS011;3600;48.568;7.870;2023-06-22T02:53:42;10.82;;;8.13;;
7116;SDS011;3600;48.568;7.870;2023-06-22T02:56:12;11.48;;;8.25;;
7116;SDS011;3600;48.568;7.870;2023-06-22T02:58:39;10.75;;;8.75;;
7116;SDS011;3600;48.568;7.870;2023-06-22T03:01:06;10.23;;;8.90;;
7116;SDS011;3600;48.568;7.870;2023-06-22T03:03:33;8.65;;;7.55;;
7116;SDS011;3600;48.568;7.870;2023-06-22T03:06:00;9.02;;;7.88;;
7116;SDS011;3600;48.568;7.870;2023-06-22T03:08:27;8.40;;;7.70;;
7116;SDS011;3600;48.568;7.870;2023-06-22T03:10:55;9.82;;;7.82;;
7116;SDS011;3600;48.568;7.870;2023-06-22T03:13:22;8.52;;;7.70;;
7116;SDS011;3600;48.568;7.870;2023-06-22T03:15:50;10.52;;;8.20;;
7116;SDS011;3600;48.568;7.870;2023-06-22T03:18:16;9.77;;;8.18;;
7116;SDS011;3600;48.568;7.870;2023-06-22T03:20:43;8.93;;;6.80;;
7116;SDS011;3600;48.568;7.870;2023-06-22T03:23:10;9.13;;;6.72;;
7116;SDS011;3600;48.568;7.870;2023-06-22T03:25:37;8.77;;;7.57;;
7116;SDS011;3600;48.568;7.870;2023-06-22T03:28:04;8.98;;;8.02;;
7116;SDS011;3600;48.568;7.870;2023-06-22T03:30:31;9.45;;;6.90;;
7116;SDS011;3600;48.568;7.870;2023-06-22T03:32:58;10.98;;;8.13;;
7116;SDS011;3600;48.568;7.870;2023-06-22T03:35:24;8.52;;;7.65;;
7116;SDS011;3600;48.568;7.870;2023-06-22T03:37:51;9.55;;;8.13;;
7116;SDS011;3600;48.568;7.870;2023-06-22T03:40:18;10.50;;;7.70;;
7116;SDS011;3600;48.568;7.870;2023-06-22T03:42:45;10.40;;;8.23;;
7116;SDS011;3600;48.568;7.870;2023-06-22T03:45:12;10.10;;;8.43;;
7116;SDS011;3600;48.568;7.870;2023-06-22T03:47:39;9.10;;;8.18;;
7116;SDS011;3600;48.568;7.870;2023-06-22T03:50:06;10.40;;;9.27;;
7116;SDS011;3600;48.568;7.870;2023-06-22T03:52:34;10.07;;;9.07;;
7116;SDS011;3600;48.568;7.870;2023-06-22T03:55:02;9.85;;;8.80;;
7116;SDS011;3600;48.568;7.870;2023-06-22T03:57:29;14.02;;;9.25;;
7116;SDS011;3600;48.568;7.870;2023-06-22T03:59:56;10.18;;;8.73;;
7116;SDS011;3600;48.568;7.870;2023-06-22T04:02:24;10.50;;;7.90;;
7116;SDS011;3600;48.568;7.870;2023-06-22T04:04:52;8.43;;;7.38;;
7116;SDS011;3600;48.568;7.870;2023-06-22T04:07:19;11.10;;;8.57;;
7116;SDS011;3600;48.568;7.870;2023-06-22T04:09:46;11.45;;;9.05;;
7116;SDS011;3600;48.568;7.870;2023-06-22T04:12:13;11.05;;;8.45;;
7116;SDS011;3600;48.568;7.870;2023-06-22T04:14:40;9.98;;;8.95;;
7116;SDS011;3600;48.568;7.870;2023-06-22T04:17:07;10.85;;;8.13;;
7116;SDS011;3600;48.568;7.870;2023-06-22T04:19:34;11.07;;;7.78;;
7116;SDS011;3600;48.568;7.870;2023-06-22T04:22:00;10.70;;;7.88;;
7116;SDS011;3600;48.568;7.870;2023-06-22T04:24:27;10.20;;;8.63;;
7116;SDS011;3600;48.568;7.870;2023-06-22T04:26:54;10.85;;;8.32;;
7116;SDS011;3600;48.568;7.870;2023-06-22T04:29:21;10.70;;;8.15;;
7116;SDS011;3600;48.568;7.870;2023-06-22T04:31:55;10.57;;;8.48;;
7116;SDS011;3600;48.568;7.870;2023-06-22T04:34:24;10.40;;;8.50;;
7116;SDS011;3600;48.568;7.870;2023-06-22T04:36:54;10.38;;;8.85;;
7116;SDS011;3600;48.568;7.870;2023-06-22T04:39:22;10.18;;;8.65;;
7116;SDS011;3600;48.568;7.870;2023-06-22T04:41:50;10.85;;;9.07;;
7116;SDS011;3600;48.568;7.870;2023-06-22T04:44:18;10.38;;;9.32;;
7116;SDS011;3600;48.568;7.870;2023-06-22T04:46:52;10.73;;;8.15;;
7116;SDS011;3600;48.568;7.870;2023-06-22T04:49:35;10.50;;;9.38;;
7116;SDS011;3600;48.568;7.870;2023-06-22T04:52:07;12.00;;;9.38;;
7116;SDS011;3600;48.568;7.870;2023-06-22T04:54:36;11.32;;;8.63;;
7116;SDS011;3600;48.568;7.870;2023-06-22T04:57:05;9.68;;;7.97;;
7116;SDS011;3600;48.568;7.870;2023-06-22T04:59:37;8.90;;;8.10;;
7116;SDS011;3600;48.568;7.870;2023-06-22T05:02:05;10.80;;;8.82;;
7116;SDS011;3600;48.568;7.870;2023-06-22T05:04:32;9.63;;;8.73;;
7116;SDS011;3600;48.568;7.870;2023-06-22T05:07:02;11.10;;;8.27;;
7116;SDS011;3600;48.568;7.870;2023-06-22T05:09:29;10.20;;;8.15;;
7116;SDS011;3600;48.568;7.870;2023-06-22T05:11:57;9.27;;;8.25;;
7116;SDS011;3600;48.568;7.870;2023-06-22T05:14:25;9.52;;;8.13;;
7116;SDS011;3600;48.568;7.870;2023-06-22T05:16:52;10.10;;;7.70;;
7116;SDS011;3600;48.568;7.870;2023-06-22T05:19:19;8.55;;;7.45;;
7116;SDS011;3600;48.568;7.870;2023-06-22T05:21:46;9.38;;;8.48;;
7116;SDS011;3600;48.568;7.870;2023-06-22T05:24:13;9.45;;;7.43;;
7116;SDS011;3600;48.568;7.870;2023-06-22T05:26:39;9.63;;;8.02;;
7116;SDS011;3600;48.568;7.870;2023-06-22T05:29:06;8.55;;;7.68;;
7116;SDS011;3600;48.568;7.870;2023-06-22T05:31:34;7.75;;;7.03;;
7116;SDS011;3600;48.568;7.870;2023-06-22T05:34:01;8.77;;;8.05;;
7116;SDS011;3600;48.568;7.870;2023-06-22T05:36:27;8.85;;;7.20;;
7116;SDS011;3600;48.568;7.870;2023-06-22T05:38:56;10.25;;;8.70;;
7116;SDS011;3600;48.568;7.870;2023-06-22T05:41:23;9.05;;;8.15;;
7116;SDS011;3600;48.568;7.870;2023-06-22T05:43:50;10.63;;;7.75;;
7116;SDS011;3600;48.568;7.870;2023-06-22T05:46:17;10.35;;;7.78;;
7116;SDS011;3600;48.568;7.870;2023-06-22T05:48:45;9.02;;;7.85;;
7116;SDS011;3600;48.568;7.870;2023-06-22T05:51:12;9.50;;;8.50;;
7116;SDS011;3600;48.568;7.870;2023-06-22T05:53:38;10.82;;;8.13;;
7116;SDS011;3600;48.568;7.870;2023-06-22T05:56:05;8.55;;;7.05;;
7116;SDS011;3600;48.568;7.870;2023-06-22T05:58:32;9.75;;;6.53;;
7116;SDS011;3600;48.568;7.870;2023-06-22T06:00:59;8.18;;;7.38;;
7116;SDS011;3600;48.568;7.870;2023-06-22T06:03:26;8.07;;;7.28;;
7116;SDS011;3600;48.568;7.870;2023-06-22T06:05:55;8.65;;;7.78;;
7116;SDS011;3600;48.568;7.870;2023-06-22T06:08:22;9.40;;;8.40;;
7116;SDS011;3600;48.568;7.870;2023-06-22T06:10:49;8.65;;;7.78;;
7116;SDS011;3600;48.568;7.870;2023-06-22T06:13:15;11.25;;;7.95;;
7116;SDS011;3600;48.568;7.870;2023-06-22T06:15:42;10.30;;;8.60;;
7116;SDS011;3600;48.568;7.870;2023-06-22T06:18:09;11.88;;;8.60;;
7116;SDS011;3600;48.568;7.870;2023-06-22T06:20:36;7.60;;;6.90;;
7116;SDS011;3600;48.568;7.870;2023-06-22T06:23:03;7.53;;;6.82;;
7116;SDS011;3600;48.568;7.870;2023-06-22T06:25:30;10.80;;;7.60;;
7116;SDS011;3600;48.568;7.870;2023-06-22T06:27:56;7.18;;;6.45;;
7116;SDS011;3600;48.568;7.870;2023-06-22T06:30:23;8.27;;;7.47;;
7116;SDS011;3600;48.568;7.870;2023-06-22T06:32:50;10.95;;;7.53;;
7116;SDS011;3600;48.568;7.870;2023-06-22T06:35:17;7.63;;;6.70;;
7116;SDS011;3600;48.568;7.870;2023-06-22T06:37:45;8.18;;;7.40;;
7116;SDS011;3600;48.568;7.870;2023-06-22T06:40:14;9.13;;;8.23;;
7116;SDS011;3600;48.568;7.870;2023-06-22T06:42:50;10.00;;;6.80;;
7116;SDS011;3600;48.568;7.870;2023-06-22T06:45:20;10.48;;;8.88;;
7116;SDS011;3600;48.568;7.870;2023-06-22T06:47:51;10.02;;;8.45;;
7116;SDS011;3600;48.568;7.870;2023-06-22T06:50:19;9.80;;;8.80;;
7116;SDS011;3600;48.568;7.870;2023-06-22T06:52:46;9.90;;;8.32;;
7116;SDS011;3600;48.568;7.870;2023-06-22T06:55:13;8.25;;;7.45;;
7116;SDS011;3600;48.568;7.870;2023-06-22T06:57:41;9.57;;;8.55;;
7116;SDS011;3600;48.568;7.870;2023-06-22T07:00:09;8.82;;;7.93;;
7116;SDS011;3600;48.568;7.870;2023-06-22T07:02:41;9.00;;;8.10;;
7116;SDS011;3600;48.568;7.870;2023-06-22T07:05:09;9.77;;;8.30;;
7116;SDS011;3600;48.568;7.870;2023-06-22T07:07:38;10.27;;;8.60;;
7116;SDS011;3600;48.568;7.870;2023-06-22T07:10:05;10.68;;;8.93;;
7116;SDS011;3600;48.568;7.870;2023-06-22T07:12:40;9.10;;;7.82;;
7116;SDS011;3600;48.568;7.870;2023-06-22T07:15:07;9.07;;;7.88;;
7116;SDS011;3600;48.568;7.870;2023-06-22T07:17:36;8.68;;;7.50;;
7116;SDS011;3600;48.568;7.870;2023-06-22T07:20:03;9.32;;;7.70;;
7116;SDS011;3600;48.568;7.870;2023-06-22T07:22:40;9.70;;;7.93;;
7116;SDS011;3600;48.568;7.870;2023-06-22T07:25:09;10.23;;;7.43;;
7116;SDS011;3600;48.568;7.870;2023-06-22T07:27:36;9.00;;;8.10;;
7116;SDS011;3600;48.568;7.870;2023-06-22T07:30:06;9.15;;;7.38;;
7116;SDS011;3600;48.568;7.870;2023-06-22T07:32:33;8.15;;;7.35;;
7116;SDS011;3600;48.568;7.870;2023-06-22T07:35:00;10.18;;;8.20;;
7116;SDS011;3600;48.568;7.870;2023-06-22T07:37:28;8.88;;;7.10;;
7116;SDS011;3600;48.568;7.870;2023-06-22T07:39:55;9.00;;;7.35;;
7116;SDS011;3600;48.568;7.870;2023-06-22T07:42:25;9.07;;;8.18;;
7116;SDS011;3600;48.568;7.870;2023-06-22T07:44:53;9.48;;;7.57;;
7116;SDS011;3600;48.568;7.870;2023-06-22T07:47:22;12.10;;;8.30;;
7116;SDS011;3600;48.568;7.870;2023-06-22T07:49:52;10.48;;;7.10;;
7116;SDS011;3600;48.568;7.870;2023-06-22T07:52:21;13.55;;;9.63;;
7116;SDS011;3600;48.568;7.870;2023-06-22T07:54:48;15.82;;;10.80;;
7116;SDS011;3600;48.568;7.870;2023-06-22T07:57:15;14.65;;;10.70;;
7116;SDS011;3600;48.568;7.870;2023-06-22T07:59:41;11.57;;;9.93;;
7116;SDS011;3600;48.568;7.870;2023-06-22T08:02:08;11.35;;;8.32;;
7116;SDS011;3600;48.568;7.870;2023-06-22T08:04:36;9.57;;;8.68;;
7116;SDS011;3600;48.568;7.870;2023-06-22T08:07:03;12.15;;;8.35;;
7116;SDS011;3600;48.568;7.870;2023-06-22T08:09:31;13.30;;;7.93;;
7116;SDS011;3600;48.568;7.870;2023-06-22T08:11:58;8.68;;;7.65;;
7116;SDS011;3600;48.568;7.870;2023-06-22T08:14:26;9.70;;;7.57;;
7116;SDS011;3600;48.568;7.870;2023-06-22T08:16:54;10.02;;;7.00;;
7116;SDS011;3600;48.568;7.870;2023-06-22T08:19:21;8.85;;;7.53;;
7116;SDS011;3600;48.568;7.870;2023-06-22T08:21:47;8.23;;;7.22;;
7116;SDS011;3600;48.568;7.870;2023-06-22T08:24:14;9.73;;;7.82;;
7116;SDS011;3600;48.568;7.870;2023-06-22T08:26:41;10.80;;;8.82;;
7116;SDS011;3600;48.568;7.870;2023-06-22T08:29:08;9.18;;;8.38;;
7116;SDS011;3600;48.568;7.870;2023-06-22T08:31:35;11.50;;;8.65;;
7116;SDS011;3600;48.568;7.870;2023-06-22T08:34:02;9.98;;;8.70;;
7116;SDS011;3600;48.568;7.870;2023-06-22T08:36:29;9.05;;;8.23;;
7116;SDS011;3600;48.568;7.870;2023-06-22T08:38:59;9.80;;;8.55;;
7116;SDS011;3600;48.568;7.870;2023-06-22T08:41:28;11.45;;;9.32;;
7116;SDS011;3600;48.568;7.870;2023-06-22T08:43:55;9.90;;;8.88;;
7116;SDS011;3600;48.568;7.870;2023-06-22T08:46:22;9.32;;;7.65;;
7116;SDS011;3600;48.568;7.870;2023-06-22T08:48:56;10.32;;;7.85;;
7116;SDS011;3600;48.568;7.870;2023-06-22T08:51:27;8.30;;;7.40;;
7116;SDS011;3600;48.568;7.870;2023-06-22T08:53:54;8.52;;;7.32;;
7116;SDS011;3600;48.568;7.870;2023-06-22T08:56:20;9.57;;;7.45;;
7116;SDS011;3600;48.568;7.870;2023-06-22T08:58:47;8.38;;;7.53;;
7116;SDS011;3600;48.568;7.870;2023-06-22T09:01:14;11.57;;;8.27;;
7116;SDS011;3600;48.568;7.870;2023-06-22T09:03:41;11.45;;;8.23;;
7116;SDS011;3600;48.568;7.870;2023-06-22T09:06:09;10.70;;;8.35;;
7116;SDS011;3600;48.568;7.870;2023-06-22T09:08:36;10.45;;;7.43;;
7116;SDS011;3600;48.568;7.870;2023-06-22T09:11:03;10.63;;;7.40;;
7116;SDS011;3600;48.568;7.870;2023-06-22T09:13:30;9.43;;;7.78;;
7116;SDS011;3600;48.568;7.870;2023-06-22T09:15:58;12.35;;;8.00;;
7116;SDS011;3600;48.568;7.870;2023-06-22T09:18:24;11.48;;;8.40;;
7116;SDS011;3600;48.568;7.870;2023-06-22T09:20:51;9.52;;;6.38;;
7116;SDS011;3600;48.568;7.870;2023-06-22T09:23:18;7.38;;;6.45;;
7116;SDS011;3600;48.568;7.870;2023-06-22T09:25:45;10.50;;;6.78;;
7116;SDS011;3600;48.568;7.870;2023-06-22T09:28:14;10.68;;;7.57;;
7116;SDS011;3600;48.568;7.870;2023-06-22T09:30:42;11.52;;;7.28;;
7116;SDS011;3600;48.568;7.870;2023-06-22T09:33:11;8.75;;;6.78;;
7116;SDS011;3600;48.568;7.870;2023-06-22T09:35:38;8.60;;;6.20;;
7116;SDS011;3600;48.568;7.870;2023-06-22T09:38:05;11.98;;;7.40;;
7116;SDS011;3600;48.568;7.870;2023-06-22T09:40:31;11.40;;;7.78;;
7116;SDS011;3600;48.568;7.870;2023-06-22T09:43:01;11.95;;;7.18;;
7116;SDS011;3600;48.568;7.870;2023-06-22T09:45:28;10.27;;;7.20;;
7116;SDS011;3600;48.568;7.870;2023-06-22T09:47:55;7.72;;;6.93;;
7116;SDS011;3600;48.568;7.870;2023-06-22T09:50:23;9.52;;;6.97;;
7116;SDS011;3600;48.568;7.870;2023-06-22T09:52:50;9.55;;;7.13;;
7116;SDS011;3600;48.568;7.870;2023-06-22T09:55:21;7.25;;;6.28;;
7116;SDS011;3600;48.568;7.870;2023-06-22T09:57:48;8.98;;;7.45;;
7116;SDS011;3600;48.568;7.870;2023-06-22T10:00:16;7.93;;;7.13;;
7116;SDS011;3600;48.568;7.870;2023-06-22T10:02:45;7.45;;;6.50;;
7116;SDS011;3600;48.568;7.870;2023-06-22T10:05:13;8.02;;;6.97;;
7116;SDS011;3600;48.568;7.870;2023-06-22T10:07:40;11.50;;;6.60;;
7116;SDS011;3600;48.568;7.870;2023-06-22T10:10:09;8.25;;;7.10;;
7116;SDS011;3600;48.568;7.870;2023-06-22T10:12:40;7.88;;;6.90;;
7116;SDS011;3600;48.568;7.870;2023-06-22T10:15:14;8.40;;;6.72;;
7116;SDS011;3600;48.568;7.870;2023-06-22T10:17:42;9.45;;;7.13;;
7116;SDS011;3600;48.568;7.870;2023-06-22T10:20:09;12.70;;;6.80;;
7116;SDS011;3600;48.568;7.870;2023-06-22T10:22:41;10.10;;;7.07;;
7116;SDS011;3600;48.568;7.870;2023-06-22T10:25:10;8.60;;;6.35;;
7116;SDS011;3600;48.568;7.870;2023-06-22T10:27:37;8.05;;;7.25;;
7116;SDS011;3600;48.568;7.870;2023-06-22T10:30:09;7.70;;;6.68;;
7116;SDS011;3600;48.568;7.870;2023-06-22T10:32:37;9.43;;;7.20;;
7116;SDS011;3600;48.568;7.870;2023-06-22T10:35:05;9.52;;;7.35;;
7116;SDS011;3600;48.568;7.870;2023-06-22T10:37:33;7.47;;;6.43;;
7116;SDS011;3600;48.568;7.870;2023-06-22T10:40:00;10.18;;;6.65;;
7116;SDS011;3600;48.568;7.870;2023-06-22T10:42:27;7.72;;;6.55;;
7116;SDS011;3600;48.568;7.870;2023-06-22T10:44:54;9.90;;;7.03;;
7116;SDS011;3600;48.568;7.870;2023-06-22T10:47:21;9.98;;;6.45;;
7116;SDS011;3600;48.568;7.870;2023-06-22T10:49:47;8.73;;;7.50;;
7116;SDS011;3600;48.568;7.870;2023-06-22T10:52:14;8.98;;;7.07;;
7116;SDS011;3600;48.568;7.870;2023-06-22T10:54:41;7.80;;;6.60;;
7116;SDS011;3600;48.568;7.870;2023-06-22T10:57:08;8.05;;;7.25;;
7116;SDS011;3600;48.568;7.870;2023-06-22T10:59:35;7.78;;;6.80;;
7116;SDS011;3600;48.568;7.870;2023-06-22T11:02:02;9.30;;;6.53;;
7116;SDS011;3600;48.568;7.870;2023-06-22T11:04:29;10.95;;;8.27;;
7116;SDS011;3600;48.568;7.870;2023-06-22T11:06:56;9.82;;;7.72;;
7116;SDS011;3600;48.568;7.870;2023-06-22T11:09:22;6.95;;;6.00;;
7116;SDS011;3600;48.568;7.870;2023-06-22T11:11:55;8.13;;;6.13;;
7116;SDS011;3600;48.568;7.870;2023-06-22T11:14:22;7.80;;;6.28;;
7116;SDS011;3600;48.568;7.870;2023-06-22T11:16:49;10.07;;;6.20;;
7116;SDS011;3600;48.568;7.870;2023-06-22T11:19:17;7.38;;;5.88;;
7116;SDS011;3600;48.568;7.870;2023-06-22T11:21:44;10.60;;;6.78;;
7116;SDS011;3600;48.568;7.870;2023-06-22T11:24:11;10.77;;;6.50;;
7116;SDS011;3600;48.568;7.870;2023-06-22T11:26:38;8.45;;;5.90;;
7116;SDS011;3600;48.568;7.870;2023-06-22T11:29:04;8.00;;;5.80;;
7116;SDS011;3600;48.568;7.870;2023-06-22T11:31:32;8.85;;;6.35;;
7116;SDS011;3600;48.568;7.870;2023-06-22T11:34:00;8.30;;;6.20;;
7116;SDS011;3600;48.568;7.870;2023-06-22T11:36:28;8.25;;;5.78;;
7116;SDS011;3600;48.568;7.870;2023-06-22T11:38:59;6.90;;;6.00;;
7116;SDS011;3600;48.568;7.870;2023-06-22T11:41:26;9.85;;;5.72;;
7116;SDS011;3600;48.568;7.870;2023-06-22T11:43:53;9.07;;;6.75;;
7116;SDS011;3600;48.568;7.870;2023-06-22T11:46:19;7.65;;;6.05;;
7116;SDS011;3600;48.568;7.870;2023-06-22T11:48:46;8.80;;;6.85;;
7116;SDS011;3600;48.568;7.870;2023-06-22T11:51:14;8.93;;;5.88;;
7116;SDS011;3600;48.568;7.870;2023-06-22T11:53:41;9.77;;;6.32;;
7116;SDS011;3600;48.568;7.870;2023-06-22T11:56:08;11.55;;;6.32;;
7116;SDS011;3600;48.568;7.870;2023-06-22T11:58:36;10.55;;;6.88;;
7116;SDS011;3600;48.568;7.870;2023-06-22T12:01:02;10.02;;;6.28;;
7116;SDS011;3600;48.568;7.870;2023-06-22T12:03:29;10.07;;;6.75;;
7116;SDS011;3600;48.568;7.870;2023-06-22T12:05:56;9.93;;;6.90;;
7116;SDS011;3600;48.568;7.870;2023-06-22T12:08:24;10.57;;;6.70;;
7116;SDS011;3600;48.568;7.870;2023-06-22T12:10:50;8.77;;;6.22;;
7116;SDS011;3600;48.568;7.870;2023-06-22T12:13:18;10.00;;;6.90;;
7116;SDS011;3600;48.568;7.870;2023-06-22T12:15:45;12.45;;;6.78;;
7116;SDS011;3600;48.568;7.870;2023-06-22T12:18:12;8.77;;;6.43;;
7116;SDS011;3600;48.568;7.870;2023-06-22T12:20:41;6.57;;;5.70;;
7116;SDS011;3600;48.568;7.870;2023-06-22T12:23:08;8.23;;;5.95;;
7116;SDS011;3600;48.568;7.870;2023-06-22T12:25:34;9.27;;;6.63;;
7116;SDS011;3600;48.568;7.870;2023-06-22T12:28:01;8.40;;;6.07;;
7116;SDS011;3600;48.568;7.870;2023-06-22T12:30:28;10.45;;;6.97;;
7116;SDS011;3600;48.568;7.870;2023-06-22T12:32:56;12.63;;;7.40;;
7116;SDS011;3600;48.568;7.870;2023-06-22T12:35:23;8.77;;;5.88;;
7116;SDS011;3600;48.568;7.870;2023-06-22T12:37:50;7.10;;;5.10;;
7116;SDS011;3600;48.568;7.870;2023-06-22T12:40:17;8.23;;;6.05;;
7116;SDS011;3600;48.568;7.870;2023-06-22T12:42:44;10.80;;;6.18;;
7116;SDS011;3600;48.568;7.870;2023-06-22T12:45:11;9.00;;;6.03;;
7116;SDS011;3600;48.568;7.870;2023-06-22T12:47:38;11.75;;;7.40;;
7116;SDS011;3600;48.568;7.870;2023-06-22T12:50:05;10.63;;;6.65;;
7116;SDS011;3600;48.568;7.870;2023-06-22T12:52:33;9.10;;;6.28;;
7116;SDS011;3600;48.568;7.870;2023-06-22T12:54:59;10.82;;;6.95;;
7116;SDS011;3600;48.568;7.870;2023-06-22T12:57:26;9.48;;;7.45;;
7116;SDS011;3600;48.568;7.870;2023-06-22T12:59:53;12.57;;;8.43;;
7116;SDS011;3600;48.568;7.870;2023-06-22T13:02:20;10.90;;;6.70;;
7116;SDS011;3600;48.568;7.870;2023-06-22T13:04:47;11.63;;;6.55;;
7116;SDS011;3600;48.568;7.870;2023-06-22T13:07:28;8.18;;;6.53;;
7116;SDS011;3600;48.568;7.870;2023-06-22T13:10:02;11.05;;;6.97;;
7116;SDS011;3600;48.568;7.870;2023-06-22T13:12:29;10.73;;;6.78;;
7116;SDS011;3600;48.568;7.870;2023-06-22T13:14:56;10.90;;;6.82;;
7116;SDS011;3600;48.568;7.870;2023-06-22T13:17:23;7.97;;;6.65;;
7116;SDS011;3600;48.568;7.870;2023-06-22T13:19:50;11.50;;;6.95;;
7116;SDS011;3600;48.568;7.870;2023-06-22T13:24:54;10.38;;;6.93;;
7116;SDS011;3600;48.568;7.870;2023-06-22T13:27:21;13.15;;;7.78;;
7116;SDS011;3600;48.568;7.870;2023-06-22T13:29:49;11.88;;;7.65;;
7116;SDS011;3600;48.568;7.870;2023-06-22T13:32:16;8.63;;;6.90;;
7116;SDS011;3600;48.568;7.870;2023-06-22T13:34:43;8.18;;;6.60;;
7116;SDS011;3600;48.568;7.870;2023-06-22T13:37:10;10.40;;;7.35;;
7116;SDS011;3600;48.568;7.870;2023-06-22T13:39:37;9.93;;;6.78;;
7116;SDS011;3600;48.568;7.870;2023-06-22T13:42:04;8.40;;;6.47;;
7116;SDS011;3600;48.568;7.870;2023-06-22T13:44:31;8.52;;;6.65;;
7116;SDS011;3600;48.568;7.870;2023-06-22T13:46:59;9.30;;;6.82;;
7116;SDS011;3600;48.568;7.870;2023-06-22T13:49:26;9.75;;;6.55;;
7116;SDS011;3600;48.568;7.870;2023-06-22T13:51:53;10.27;;;6.18;;
7116;SDS011;3600;48.568;7.870;2023-06-22T13:54:20;7.78;;;6.03;;
7116;SDS011;3600;48.568;7.870;2023-06-22T13:56:55;9.80;;;5.95;;
7116;SDS011;3600;48.568;7.870;2023-06-22T13:59:22;14.60;;;6.05;;
7116;SDS011;3600;48.568;7.870;2023-06-22T14:01:49;10.50;;;6.10;;
7116;SDS011;3600;48.568;7.870;2023-06-22T14:04:16;9.43;;;6.25;;
7116;SDS011;3600;48.568;7.870;2023-06-22T14:06:42;6.80;;;5.57;;
7116;SDS011;3600;48.568;7.870;2023-06-22T14:09:09;9.98;;;5.50;;
7116;SDS011;3600;48.568;7.870;2023-06-22T14:11:36;9.27;;;5.78;;
7116;SDS011;3600;48.568;7.870;2023-06-22T14:14:03;9.18;;;5.78;;
7116;SDS011;3600;48.568;7.870;2023-06-22T14:16:30;12.27;;;6.38;;
7116;SDS011;3600;48.568;7.870;2023-06-22T14:18:57;10.43;;;6.32;;
7116;SDS011;3600;48.568;7.870;2023-06-22T14:21:25;11.68;;;6.80;;
7116;SDS011;3600;48.568;7.870;2023-06-22T14:23:52;9.48;;;6.40;;
7116;SDS011;3600;48.568;7.870;2023-06-22T14:26:19;8.45;;;5.90;;
7116;SDS011;3600;48.568;7.870;2023-06-22T14:28:46;10.45;;;6.10;;
7116;SDS011;3600;48.568;7.870;2023-06-22T14:31:15;13.45;;;6.15;;
7116;SDS011;3600;48.568;7.870;2023-06-22T14:33:46;6.32;;;5.53;;
7116;SDS011;3600;48.568;7.870;2023-06-22T14:36:20;8.18;;;6.05;;
7116;SDS011;3600;48.568;7.870;2023-06-22T14:38:47;10.75;;;5.95;;
7116;SDS011;3600;48.568;7.870;2023-06-22T14:41:14;9.85;;;5.88;;
7116;SDS011;3600;48.568;7.870;2023-06-22T14:43:47;11.55;;;5.90;;
7116;SDS011;3600;48.568;7.870;2023-06-22T14:46:17;12.35;;;5.97;;
7116;SDS011;3600;48.568;7.870;2023-06-22T14:48:45;10.25;;;6.03;;
7116;SDS011;3600;48.568;7.870;2023-06-22T14:51:12;9.93;;;5.63;;
7116;SDS011;3600;48.568;7.870;2023-06-22T14:53:45;11.27;;;5.95;;
7116;SDS011;3600;48.568;7.870;2023-06-22T14:56:13;6.72;;;5.05;;
7116;SDS011;3600;48.568;7.870;2023-06-22T14:58:42;8.20;;;4.95;;
7116;SDS011;3600;48.568;7.870;2023-06-22T15:01:12;9.65;;;4.82;;
7116;SDS011;3600;48.568;7.870;2023-06-22T15:03:39;7.78;;;5.00;;
7116;SDS011;3600;48.568;7.870;2023-06-22T15:06:08;11.98;;;5.40;;
7116;SDS011;3600;48.568;7.870;2023-06-22T15:08:38;10.80;;;5.97;;
7116;SDS011;3600;48.568;7.870;2023-06-22T15:11:08;9.05;;;5.50;;
7116;SDS011;3600;48.568;7.870;2023-06-22T15:13:38;9.65;;;5.22;;
7116;SDS011;3600;48.568;7.870;2023-06-22T15:16:06;8.65;;;5.03;;
7116;SDS011;3600;48.568;7.870;2023-06-22T15:18:33;10.43;;;4.80;;
7116;SDS011;3600;48.568;7.870;2023-06-22T15:21:01;12.48;;;5.82;;
7116;SDS011;3600;48.568;7.870;2023-06-22T15:23:31;10.10;;;5.05;;
7116;SDS011;3600;48.568;7.870;2023-06-22T15:26:01;8.15;;;5.38;;